Time;durP1;ratioP1;P1;durP2;ratioP2;P2;SDS_P1;SDS_P2;PMS_P1;PMS_P2;Temp;Humidity;BMP_temperature;BMP_pressure;BME280_temperature;BME280_humidity;BME280_pressure;Samples;Min_cycle;Max_cycle;Signal;HPM_P1;HPM_P2
2020/12/18 00:03:43;;;;;;;12.98;11.63;;;;;;;7.01;81.61;101032.09;9786718;28;20117;-67
2020/12/18 00:08:44;;;;;;;13.88;12.35;;;;;;;7.01;81.40;101040.03;9784523;28;20565;-66
2020/12/18 00:13:45;;;;;;;13.02;11.68;;;;;;;6.95;81.39;101034.22;9771347;28;20061;-67
2020/12/18 00:18:47;;;;;;;13.70;12.32;;;;;;;6.95;81.31;101029.78;9768368;28;20348;-67
2020/12/18 00:23:49;;;;;;;12.65;11.35;;;;;;;6.96;81.31;101020.88;9776532;28;20051;-67
2020/12/18 00:28:50;;;;;;;13.52;12.23;;;;;;;7.02;81.37;101014.41;9784532;28;20109;-66
2020/12/18 00:33:51;;;;;;;13.18;11.85;;;;;;;7.04;81.29;101012.53;9760919;28;20074;-68
2020/12/18 00:38:53;;;;;;;16.30;13.90;;;;;;;6.93;81.23;101007.81;9772587;28;20085;-68
2020/12/18 00:43:54;;;;;;;15.65;13.93;;;;;;;6.93;81.30;100999.88;9776397;28;20089;-67
2020/12/18 00:48:55;;;;;;;15.35;13.85;;;;;;;6.96;81.11;101001.53;9773747;28;20078;-68
2020/12/18 00:53:56;;;;;;;15.98;14.27;;;;;;;6.91;81.29;101009.72;9775384;28;22450;-68
2020/12/18 00:58:57;;;;;;;15.18;13.55;;;;;;;6.88;80.54;101012.50;9762888;28;20073;-67
2020/12/18 01:03:59;;;;;;;19.98;16.02;;;;;;;6.66;79.76;101008.34;9782849;28;20051;-67
2020/12/18 01:09:00;;;;;;;21.77;16.88;;;;;;;6.59;79.32;101004.31;9785956;28;20126;-68
2020/12/18 01:14:01;;;;;;;19.80;16.75;;;;;;;6.63;79.36;101020.88;9802243;28;20090;-67
2020/12/18 01:19:02;;;;;;;16.67;14.63;;;;;;;6.54;79.89;101030.13;9780160;28;20102;-67
2020/12/18 01:24:04;;;;;;;16.55;14.90;;;;;;;6.54;79.76;101027.50;9819654;28;20055;-67
2020/12/18 01:29:05;;;;;;;14.95;13.50;;;;;;;6.39;79.73;101012.41;9812359;28;20065;-69
2020/12/18 01:34:08;;;;;;;14.90;12.70;;;;;;;6.49;79.74;101037.47;9785231;28;20095;-69
2020/12/18 01:39:09;;;;;;;16.25;14.70;;;;;;;6.54;79.00;101046.88;9789883;28;20050;-66
2020/12/18 01:44:10;;;;;;;14.85;13.30;;;;;;;6.54;79.55;101056.59;9763469;28;20101;-67
2020/12/18 01:49:11;;;;;;;14.07;12.63;;;;;;;6.57;79.64;101067.00;9806763;28;21354;-67
2020/12/18 01:54:23;;;;;;;18.27;14.13;;;;;;;6.64;79.27;101052.53;9777777;28;20462;-65
2020/12/18 01:59:24;;;;;;;15.20;13.73;;;;;;;6.70;79.12;101062.81;9772011;28;20097;-66
2020/12/18 02:04:26;;;;;;;15.10;13.50;;;;;;;6.65;79.09;101053.38;9785575;28;20055;-66
2020/12/18 02:09:27;;;;;;;14.85;13.35;;;;;;;6.72;78.91;101060.09;9798871;28;20282;-66
2020/12/18 02:14:28;;;;;;;15.07;13.68;;;;;;;6.64;79.16;101052.53;9750549;28;22094;-68
2020/12/18 02:19:30;;;;;;;13.82;12.43;;;;;;;6.56;79.29;101049.44;9739506;28;20498;-66
2020/12/18 02:24:47;;;;;;;14.05;12.55;;;;;;;6.49;79.50;101027.72;9776728;28;22206;-68
2020/12/18 02:29:51;;;;;;;14.00;12.65;;;;;;;6.59;79.36;101044.00;9761145;28;20062;-68
2020/12/18 02:34:52;;;;;;;14.88;13.27;;;;;;;6.59;79.47;101029.91;9750144;28;20058;-68
2020/12/18 02:40:00;;;;;;;14.50;13.10;;;;;;;6.53;79.44;101018.72;9766889;28;20593;-68
2020/12/18 02:45:03;;;;;;;14.38;12.73;;;;;;;6.57;79.96;101029.97;9756099;28;20055;-68
2020/12/18 02:50:04;;;;;;;14.43;12.95;;;;;;;6.58;79.63;101029.06;9753879;28;20548;-68
2020/12/18 02:55:06;;;;;;;15.32;13.20;;;;;;;6.43;79.13;101011.34;9783824;28;20117;-68
2020/12/18 03:00:07;;;;;;;13.00;11.70;;;;;;;6.51;78.86;101027.66;9765091;28;20070;-68
2020/12/18 03:05:08;;;;;;;13.90;12.13;;;;;;;6.62;78.66;101045.59;9741413;28;20058;-68
2020/12/18 03:10:09;;;;;;;14.13;12.73;;;;;;;6.60;78.96;101045.69;9763820;28;22788;-68
2020/12/18 03:15:11;;;;;;;13.65;12.35;;;;;;;6.56;79.65;101038.88;9777833;28;23307;-68
2020/12/18 03:20:12;;;;;;;20.10;14.85;;;;;;;6.72;83.11;101046.84;9769642;28;20096;-68
2020/12/18 03:25:19;;;;;;;15.32;13.70;;;;;;;6.94;82.35;101051.88;9782834;28;20069;-68
2020/12/18 03:30:20;;;;;;;20.55;16.08;;;;;;;6.99;82.98;101046.34;9776985;28;21544;-66
2020/12/18 03:35:21;;;;;;;19.35;16.70;;;;;;;6.87;83.52;101016.94;9803889;28;20059;-66
2020/12/18 03:40:22;;;;;;;21.40;16.20;;;;;;;6.90;83.06;101022.09;9791028;28;20138;-67
2020/12/18 03:45:24;;;;;;;22.63;17.60;;;;;;;7.07;83.66;101034.41;9838520;28;22229;-66
2020/12/18 03:50:25;;;;;;;23.60;17.60;;;;;;;7.09;84.43;101042.28;9791060;28;20051;-66
2020/12/18 03:55:36;;;;;;;25.95;17.73;;;;;;;7.05;84.90;101019.56;9834179;28;20069;-67
2020/12/18 04:00:38;;;;;;;23.20;18.63;;;;;;;7.10;85.08;101021.94;9846070;28;20054;-67
2020/12/18 04:05:40;;;;;;;25.48;19.05;;;;;;;7.05;86.17;101036.28;9833791;28;20061;-66
2020/12/18 04:10:41;;;;;;;25.35;19.83;;;;;;;7.09;85.53;101026.41;9790601;28;20181;-66
2020/12/18 04:15:42;;;;;;;24.45;19.45;;;;;;;7.10;86.28;101049.31;9783641;28;20057;-66
2020/12/18 04:20:43;;;;;;;25.50;18.35;;;;;;;7.10;85.80;101048.44;9785030;28;20080;-66
2020/12/18 04:25:53;;;;;;;28.30;18.85;;;;;;;7.11;85.62;101044.84;9804157;28;20599;-67
2020/12/18 04:30:55;;;;;;;25.55;18.05;;;;;;;7.08;85.52;101035.28;9800355;28;20152;-67
2020/12/18 04:35:57;;;;;;;23.02;17.65;;;;;;;7.03;83.88;101039.97;9786273;28;20054;-67
2020/12/18 04:40:59;;;;;;;23.63;17.60;;;;;;;6.96;83.06;101033.28;9793992;28;20054;-66
2020/12/18 04:46:00;;;;;;;21.88;18.08;;;;;;;7.03;82.29;101046.09;9691933;28;20515;-67
2020/12/18 04:51:03;;;;;;;21.30;16.05;;;;;;;6.93;81.73;101026.34;9811719;28;20065;-67
2020/12/18 04:56:18;;;;;;;23.45;17.10;;;;;;;7.04;81.11;101052.25;9744980;28;20052;-67
2020/12/18 05:01:22;;;;;;;23.60;16.77;;;;;;;7.02;81.14;101057.63;9809141;28;20529;-67
2020/12/18 05:06:23;;;;;;;24.00;17.88;;;;;;;6.99;81.20;101046.34;9798379;28;20058;-66
2020/12/18 05:11:26;;;;;;;24.50;17.35;;;;;;;6.99;81.29;101041.91;9783559;28;20653;-67
2020/12/18 05:16:28;;;;;;;19.77;16.45;;;;;;;7.01;80.44;101048.00;9777297;28;22857;-67
2020/12/18 05:21:30;;;;;;;23.73;16.50;;;;;;;6.77;79.83;101043.97;9756452;28;20126;-67
2020/12/18 05:26:35;;;;;;;22.85;16.80;;;;;;;6.70;80.67;101054.88;9809253;28;20236;-68
2020/12/18 05:31:36;;;;;;;23.48;17.40;;;;;;;6.82;80.64;101079.00;9785177;28;23464;-67
2020/12/18 05:36:41;;;;;;;21.20;16.13;;;;;;;6.82;79.94;101071.06;9807068;28;20050;-66
2020/12/18 05:42:00;;;;;;;23.15;17.42;;;;;;;6.79;80.08;101065.94;9784817;28;20578;-66
2020/12/18 05:47:10;;;;;;;22.65;16.90;;;;;;;6.77;80.75;101070.44;9770535;28;22363;-66
2020/12/18 05:52:20;;;;;;;18.85;16.40;;;;;;;6.70;80.22;101073.38;9793579;28;20059;-66
2020/12/18 05:57:21;;;;;;;22.17;16.27;;;;;;;6.63;80.83;101069.34;9720644;28;20054;-66
2020/12/18 06:02:28;;;;;;;21.73;16.65;;;;;;;6.62;81.28;101086.16;9749544;28;20062;-66
2020/12/18 06:07:34;;;;;;;22.27;15.80;;;;;;;6.60;81.22;101073.94;9757553;28;20139;-67
2020/12/18 06:12:36;;;;;;;25.73;17.73;;;;;;;6.58;81.41;101073.19;9762913;28;20065;-66
2020/12/18 06:17:43;;;;;;;21.95;16.73;;;;;;;6.52;81.72;101069.88;9810872;28;20104;-65
2020/12/18 06:22:57;;;;;;;23.10;16.67;;;;;;;6.64;81.30;101076.34;9718624;28;20109;-65
2020/12/18 06:28:03;;;;;;;23.20;17.67;;;;;;;6.64;81.83;101063.13;9804438;28;20050;-66
2020/12/18 06:33:04;;;;;;;23.00;17.38;;;;;;;6.76;82.00;101076.69;9798697;28;20094;-68
2020/12/18 06:38:14;;;;;;;25.63;16.35;;;;;;;6.73;82.06;101078.53;9779397;28;20137;-67
2020/12/18 06:43:33;;;;;;;26.52;17.60;;;;;;;6.70;82.29;101060.16;9751343;28;20046;-69
2020/12/18 06:48:36;;;;;;;26.50;17.77;;;;;;;6.45;82.36;101020.03;9697472;28;20122;-67
2020/12/18 06:53:38;;;;;;;28.88;18.45;;;;;;;6.62;82.93;101059.72;9670031;28;20055;-69
2020/12/18 06:58:39;;;;;;;27.73;16.92;;;;;;;6.64;83.49;101067.56;9747702;28;22803;-67
2020/12/18 07:03:46;;;;;;;31.25;18.30;;;;;;;6.63;83.46;101071.97;9757120;28;20563;-68
2020/12/18 07:08:48;;;;;;;34.28;18.90;;;;;;;6.69;83.43;101076.97;9782959;28;20054;-68
2020/12/18 07:13:52;;;;;;;25.60;15.45;;;;;;;6.63;83.61;101061.41;9755957;28;20054;-71
2020/12/18 07:18:58;;;;;;;22.08;15.82;;;;;;;6.70;83.68;101065.44;9692393;28;20062;-68
2020/12/18 07:24:00;;;;;;;26.73;16.63;;;;;;;6.64;83.66;101068.41;9779061;28;20529;-68
2020/12/18 07:29:01;;;;;;;32.13;15.43;;;;;;;6.56;82.94;101062.69;9753933;28;20134;-68
2020/12/18 07:34:03;;;;;;;23.08;15.43;;;;;;;6.47;83.65;101076.34;9785046;28;20137;-69
2020/12/18 07:39:09;;;;;;;21.23;16.80;;;;;;;6.46;83.52;101069.34;9755174;28;20090;-64
2020/12/18 07:44:11;;;;;;;28.27;16.60;;;;;;;6.44;83.52;101073.84;9777296;28;21021;-67
2020/12/18 07:49:12;;;;;;;24.15;16.38;;;;;;;6.26;84.11;101060.63;9786781;28;21041;-67
2020/12/18 07:54:17;;;;;;;42.15;17.00;;;;;;;6.42;84.32;101087.16;9775250;28;20078;-67
2020/12/18 07:59:19;;;;;;;23.45;17.27;;;;;;;6.35;84.99;101070.75;9769824;28;20197;-66
2020/12/18 08:04:23;;;;;;;35.22;18.85;;;;;;;6.12;84.60;101065.72;9775690;28;20045;-66
2020/12/18 08:09:24;;;;;;;24.90;17.47;;;;;;;6.23;85.25;101087.22;9755815;28;23530;-65
2020/12/18 08:14:26;;;;;;;23.20;17.73;;;;;;;6.40;84.68;101074.97;9785475;28;21899;-67
2020/12/18 08:19:27;;;;;;;18.95;16.08;;;;;;;6.46;84.29;101067.56;9763497;28;20414;-66
2020/12/18 08:24:35;;;;;;;25.02;17.50;;;;;;;6.63;83.68;101077.28;9751823;28;20155;-66
2020/12/18 08:29:42;;;;;;;22.33;17.55;;;;;;;6.68;83.14;101083.22;9708697;28;24348;-67
2020/12/18 08:34:45;;;;;;;20.92;17.27;;;;;;;6.70;83.00;101075.19;9777344;28;20113;-66
2020/12/18 08:39:46;;;;;;;22.85;17.13;;;;;;;6.68;83.78;101085.84;9757804;28;20137;-65
2020/12/18 08:44:48;;;;;;;21.00;16.73;;;;;;;6.80;83.14;101062.31;9770662;28;20070;-66
2020/12/18 08:49:52;;;;;;;22.88;16.50;;;;;;;6.84;82.60;101058.59;9749448;28;22081;-65
2020/12/18 08:55:07;;;;;;;23.35;17.35;;;;;;;6.99;81.92;101086.06;9784257;28;20059;-66
2020/12/18 09:00:18;;;;;;;20.13;16.63;;;;;;;7.09;81.41;101079.34;9731064;28;20109;-67
2020/12/18 09:05:25;;;;;;;25.77;17.38;;;;;;;7.07;81.62;101076.78;9602186;28;20057;-67
2020/12/18 09:10:43;;;;;;;23.92;18.02;;;;;;;7.19;81.37;101082.34;9639245;28;20070;-67
2020/12/18 09:16:00;;;;;;;29.75;20.55;;;;;;;7.06;81.60;101076.88;9639922;28;22324;-67
2020/12/18 09:21:13;;;;;;;32.47;21.30;;;;;;;7.23;82.23;101083.91;9742809;28;24860;-67
2020/12/18 09:26:28;;;;;;;33.50;21.10;;;;;;;7.21;82.22;101077.84;9727886;28;20436;-68
2020/12/18 09:31:30;;;;;;;28.17;18.35;;;;;;;7.18;82.67;101080.66;9779680;28;21361;-68
2020/12/18 09:36:32;;;;;;;29.60;18.52;;;;;;;7.14;82.18;101087.03;9770733;28;20144;-69
2020/12/18 09:41:34;;;;;;;29.75;18.73;;;;;;;7.09;82.66;101066.09;9747705;28;20063;-68
2020/12/18 09:46:35;;;;;;;25.70;18.30;;;;;;;7.32;82.46;101083.41;9782198;28;20204;-67
2020/12/18 09:51:37;;;;;;;30.38;21.73;;;;;;;7.44;82.00;101074.78;9773830;28;20046;-67
2020/12/18 09:56:40;;;;;;;32.83;21.17;;;;;;;7.51;81.71;101071.84;9960623;28;20486;-68
2020/12/18 10:01:42;;;;;;;28.83;20.02;;;;;;;7.48;81.70;101072.84;9914841;28;20065;-67
2020/12/18 10:06:43;;;;;;;33.95;21.67;;;;;;;7.65;81.95;101061.31;9755056;28;20354;-69
2020/12/18 10:11:44;;;;;;;29.42;21.13;;;;;;;7.63;81.40;101043.78;9708987;28;20078;-68
2020/12/18 10:16:46;;;;;;;29.80;19.25;;;;;;;7.73;81.22;101051.16;9687605;28;20047;-68
2020/12/18 10:21:47;;;;;;;30.67;20.15;;;;;;;7.94;81.12;101045.56;9653612;28;20071;-68
2020/12/18 10:26:48;;;;;;;28.73;19.25;;;;;;;7.93;80.85;101046.53;9705039;28;20066;-65
2020/12/18 10:31:54;;;;;;;29.67;19.58;;;;;;;7.86;81.04;101043.34;9722421;28;20082;-67
2020/12/18 10:36:56;;;;;;;26.90;19.50;;;;;;;7.76;81.20;101039.50;9966842;28;20162;-66
2020/12/18 10:41:59;;;;;;;27.70;20.23;;;;;;;7.74;81.47;101034.28;9717086;28;21031;-68
2020/12/18 10:47:00;;;;;;;29.75;19.50;;;;;;;7.58;81.41;101007.81;9692195;28;20058;-68
2020/12/18 10:52:01;;;;;;;28.40;19.95;;;;;;;7.82;81.19;101030.38;9745925;28;20134;-66
2020/12/18 10:57:03;;;;;;;27.83;20.75;;;;;;;7.72;81.01;100999.09;9720072;28;21035;-65
2020/12/18 11:02:04;;;;;;;26.02;19.40;;;;;;;7.83;80.82;100994.97;9771716;28;20106;-66
2020/12/18 11:07:05;;;;;;;27.92;20.08;;;;;;;7.81;80.94;100978.28;9747026;28;20061;-66
2020/12/18 11:12:07;;;;;;;29.27;20.20;;;;;;;7.85;80.71;100986.00;9770510;28;20495;-65
2020/12/18 11:17:08;;;;;;;29.27;19.60;;;;;;;7.83;80.39;100979.06;9825935;28;20085;-66
2020/12/18 11:22:09;;;;;;;25.95;19.77;;;;;;;7.69;81.21;100964.81;9702212;28;20057;-65
2020/12/18 11:27:11;;;;;;;29.60;20.80;;;;;;;7.73;81.10;100961.06;9788838;28;22500;-69
2020/12/18 11:32:12;;;;;;;29.55;20.85;;;;;;;7.77;80.36;100957.25;10002844;28;20129;-67
2020/12/18 11:37:16;;;;;;;23.42;18.75;;;;;;;7.81;80.49;100965.91;9704942;28;20074;-67
2020/12/18 11:42:19;;;;;;;29.90;20.42;;;;;;;7.70;81.09;100969.19;9772107;28;20195;-66
2020/12/18 11:47:26;;;;;;;27.00;19.70;;;;;;;7.69;81.33;100978.06;9731471;28;20126;-65
2020/12/18 11:52:27;;;;;;;30.20;19.67;;;;;;;7.70;81.34;100963.88;9754262;28;20137;-65
2020/12/18 11:57:29;;;;;;;32.40;21.58;;;;;;;7.65;80.97;100951.81;9671658;28;20533;-66
2020/12/18 12:02:33;;;;;;;35.92;22.75;;;;;;;7.81;81.11;100963.25;9685276;28;21200;-63
2020/12/18 12:07:34;;;;;;;31.48;21.80;;;;;;;7.84;81.07;100956.94;9752080;28;22137;-64
2020/12/18 12:12:36;;;;;;;33.60;23.40;;;;;;;7.88;80.55;100950.50;9742665;28;20051;-68
2020/12/18 12:17:37;;;;;;;33.15;22.10;;;;;;;7.82;81.17;100959.69;9748162;28;22282;-67
2020/12/18 12:22:39;;;;;;;37.00;26.33;;;;;;;7.74;81.31;100957.44;9779244;28;23101;-66
2020/12/18 12:27:40;;;;;;;47.13;25.33;;;;;;;7.76;81.95;100941.44;9757878;28;20054;-64
2020/12/18 12:32:41;;;;;;;34.63;22.25;;;;;;;7.53;82.86;100946.28;9840979;28;20141;-67
2020/12/18 12:37:43;;;;;;;32.88;23.23;;;;;;;7.28;84.99;100957.41;9766270;28;20088;-67
2020/12/18 12:42:44;;;;;;;33.45;23.30;;;;;;;7.62;83.42;100939.59;9740025;28;20521;-66
2020/12/18 12:47:45;;;;;;;43.08;24.23;;;;;;;7.79;82.27;100938.63;9678764;28;20633;-67
2020/12/18 12:52:47;;;;;;;34.03;24.27;;;;;;;7.94;81.52;100923.63;9731873;28;20573;-70
2020/12/18 12:57:48;;;;;;;35.22;24.27;;;;;;;8.09;80.94;100914.78;9763460;28;20162;-66
2020/12/18 13:02:49;;;;;;;32.65;22.98;;;;;;;8.03;80.37;100915.16;9765083;28;20390;-67
2020/12/18 13:07:54;;;;;;;38.17;25.75;;;;;;;7.95;81.06;100914.72;9732643;28;21809;-65
2020/12/18 13:12:55;;;;;;;33.17;23.57;;;;;;;8.18;80.36;100921.34;9748478;28;20059;-66
2020/12/18 13:17:56;;;;;;;35.78;23.25;;;;;;;8.23;79.69;100923.72;9750688;28;20321;-66
2020/12/18 13:22:58;;;;;;;28.38;22.13;;;;;;;8.12;79.95;100904.00;9711005;28;20185;-66
2020/12/18 13:27:59;;;;;;;27.30;21.70;;;;;;;7.88;79.93;100863.00;9623588;28;20066;-66
2020/12/18 13:33:01;;;;;;;27.77;19.95;;;;;;;8.05;80.31;100907.09;9754952;28;22604;-64
2020/12/18 13:38:02;;;;;;;25.92;20.02;;;;;;;8.20;79.59;100910.63;9767228;28;21480;-66
2020/12/18 13:43:03;;;;;;;25.33;20.02;;;;;;;8.11;79.52;100915.53;9767477;28;20111;-71
2020/12/18 13:48:06;;;;;;;30.67;21.65;;;;;;;7.99;79.76;100921.56;9762532;28;20058;-65
2020/12/18 13:53:07;;;;;;;25.45;20.00;;;;;;;8.00;80.10;100912.69;9741358;28;20137;-64
2020/12/18 13:58:09;;;;;;;30.50;20.40;;;;;;;7.98;80.33;100909.25;9780479;28;23276;-66
2020/12/18 14:03:12;;;;;;;31.00;22.52;;;;;;;7.86;80.08;100872.88;9793475;28;20055;-68
2020/12/18 14:08:13;;;;;;;29.50;22.27;;;;;;;8.12;80.00;100906.63;9638525;28;20729;-66
2020/12/18 14:13:15;;;;;;;32.90;23.15;;;;;;;8.25;79.29;100913.84;9628853;28;20087;-65
2020/12/18 14:18:16;;;;;;;27.92;22.02;;;;;;;8.30;79.41;100914.41;9768785;28;20961;-66
2020/12/18 14:23:18;;;;;;;29.08;22.13;;;;;;;8.17;79.38;100908.13;9715747;28;20137;-66
2020/12/18 14:28:19;;;;;;;40.83;27.65;;;;;;;8.11;79.81;100910.22;9738631;28;20055;-65
2020/12/18 14:33:21;;;;;;;33.13;24.67;;;;;;;7.79;80.37;100891.78;9754702;28;20063;-66
2020/12/18 14:38:23;;;;;;;29.98;23.27;;;;;;;7.85;81.16;100902.97;9782847;28;20143;-65
2020/12/18 14:43:29;;;;;;;34.97;28.35;;;;;;;7.87;81.21;100903.75;9841424;28;20039;-65
2020/12/18 14:48:32;;;;;;;33.15;27.27;;;;;;;7.70;80.97;100876.44;9666746;28;20066;-67
2020/12/18 14:53:36;;;;;;;33.90;23.52;;;;;;;7.81;81.04;100882.88;9779648;28;20063;-65
2020/12/18 14:58:38;;;;;;;37.60;27.20;;;;;;;7.75;81.44;100898.19;9781640;28;20051;-65
2020/12/18 15:03:39;;;;;;;29.35;23.88;;;;;;;7.61;82.04;100896.38;9776257;28;20502;-66
2020/12/18 15:08:41;;;;;;;33.42;23.60;;;;;;;7.58;81.86;100882.41;9780138;28;22179;-66
2020/12/18 15:13:42;;;;;;;31.27;22.17;;;;;;;7.58;82.09;100880.66;9792919;28;20113;-69
2020/12/18 15:18:43;;;;;;;32.17;23.75;;;;;;;7.55;82.19;100872.88;9756044;28;20517;-65
2020/12/18 15:23:45;;;;;;;30.33;21.30;;;;;;;7.57;82.30;100875.44;9750705;28;20054;-64
2020/12/18 15:28:46;;;;;;;29.50;21.65;;;;;;;7.52;82.00;100878.34;9757977;28;20058;-68
2020/12/18 15:33:47;;;;;;;33.22;21.65;;;;;;;7.54;82.22;100867.66;9768462;28;20134;-65
2020/12/18 15:38:49;;;;;;;34.90;22.98;;;;;;;7.54;82.46;100862.38;9752432;28;20228;-65
2020/12/18 15:43:51;;;;;;;33.58;22.15;;;;;;;7.58;82.65;100861.22;9763562;28;20093;-65
2020/12/18 15:48:52;;;;;;;46.83;26.35;;;;;;;7.60;82.46;100868.16;9767716;28;20116;-66
2020/12/18 15:53:53;;;;;;;39.47;25.13;;;;;;;7.38;83.66;100854.44;9736265;28;20143;-67
2020/12/18 15:58:55;;;;;;;37.28;22.77;;;;;;;7.34;83.79;100859.06;9785509;28;20061;-66
2020/12/18 16:03:56;;;;;;;41.97;23.80;;;;;;;7.26;83.35;100837.47;9760068;28;20050;-68
2020/12/18 16:08:57;;;;;;;41.92;24.73;;;;;;;7.29;83.87;100853.16;9754772;28;20406;-66
2020/12/18 16:13:59;;;;;;;31.02;21.90;;;;;;;7.29;83.49;100855.81;9725538;28;20148;-67
2020/12/18 16:19:00;;;;;;;36.38;21.60;;;;;;;7.31;83.44;100861.03;9806855;28;20533;-66
2020/12/18 16:24:01;;;;;;;26.13;16.90;;;;;;;7.14;83.49;100836.34;9768004;28;20062;-66
2020/12/18 16:29:03;;;;;;;30.52;21.33;;;;;;;7.20;83.24;100827.22;9809284;28;20066;-65
2020/12/18 16:34:04;;;;;;;29.52;20.83;;;;;;;7.29;83.68;100841.72;9810980;28;24257;-66
2020/12/18 16:39:05;;;;;;;34.65;20.38;;;;;;;7.21;83.61;100834.22;9804616;28;20058;-65
2020/12/18 16:44:08;;;;;;;37.85;22.77;;;;;;;7.32;83.64;100847.69;9890467;28;21907;-66
2020/12/18 16:49:10;;;;;;;30.10;19.77;;;;;;;7.26;83.54;100840.94;9749593;28;20054;-65
2020/12/18 16:54:11;;;;;;;27.27;16.85;;;;;;;7.25;82.59;100836.63;9779013;28;20050;-66
2020/12/18 16:59:13;;;;;;;22.90;15.77;;;;;;;7.21;82.14;100836.88;9775766;28;20445;-70
2020/12/18 17:04:14;;;;;;;18.67;14.05;;;;;;;7.14;82.03;100838.16;9978018;28;20038;-66
2020/12/18 17:09:16;;;;;;;18.27;13.82;;;;;;;7.16;82.06;100830.97;9797711;28;20190;-66
2020/12/18 17:14:17;;;;;;;18.65;14.95;;;;;;;7.11;81.92;100833.03;9778346;28;20121;-66
2020/12/18 17:19:18;;;;;;;15.85;13.55;;;;;;;7.07;81.48;100851.75;9786710;28;20126;-66
2020/12/18 17:24:19;;;;;;;18.70;14.80;;;;;;;7.13;80.68;100852.34;9782195;28;20055;-67
2020/12/18 17:29:21;;;;;;;23.88;21.48;;;;;;;6.99;80.37;100837.22;9792038;28;20098;-66
2020/12/18 17:34:22;;;;;;;20.20;18.23;;;;;;;7.00;79.13;100846.91;9786199;28;20567;-65
2020/12/18 17:39:23;;;;;;;11.70;10.13;;;;;;;6.85;79.31;100830.91;9784184;28;20141;-66
2020/12/18 17:44:25;;;;;;;12.45;11.15;;;;;;;6.70;79.38;100829.97;9762125;28;20098;-68
2020/12/18 17:49:26;;;;;;;13.65;11.73;;;;;;;6.79;79.26;100835.72;9758094;28;20174;-65
2020/12/18 17:54:40;;;;;;;14.00;11.82;;;;;;;6.72;79.04;100830.75;9771868;28;20205;-66
2020/12/18 17:59:41;;;;;;;14.13;12.70;;;;;;;6.68;79.50;100823.94;9783574;28;20440;-69
2020/12/18 18:04:42;;;;;;;13.38;12.07;;;;;;;6.58;80.18;100828.00;9767920;28;20058;-67
2020/12/18 18:09:43;;;;;;;12.93;11.50;;;;;;;6.49;79.91;100817.94;9785690;28;20058;-66
2020/12/18 18:14:45;;;;;;;15.20;11.85;;;;;;;6.45;80.42;100805.81;9792459;28;20114;-65
2020/12/18 18:19:46;;;;;;;13.93;12.52;;;;;;;6.36;81.14;100815.97;9788881;28;20078;-68
2020/12/18 18:24:47;;;;;;;20.63;18.58;;;;;;;6.14;81.81;100803.03;9805703;28;20110;-68
2020/12/18 18:29:49;;;;;;;16.50;13.13;;;;;;;6.25;82.03;100812.19;9755917;28;20093;-67
2020/12/18 18:34:50;;;;;;;18.15;16.25;;;;;;;6.24;82.20;100811.31;9803298;28;20144;-66
2020/12/18 18:39:51;;;;;;;15.00;13.40;;;;;;;6.19;82.43;100792.22;9782767;28;20055;-67
2020/12/18 18:44:52;;;;;;;21.58;18.83;;;;;;;6.33;81.57;100788.81;9799052;28;20082;-66
2020/12/18 18:49:53;;;;;;;16.30;14.55;;;;;;;6.48;81.69;100809.13;9839022;28;20062;-68
2020/12/18 18:54:55;;;;;;;18.80;16.00;;;;;;;6.63;82.24;100802.13;9811120;28;20065;-68
2020/12/18 18:59:57;;;;;;;20.80;15.68;;;;;;;6.65;81.36;100784.41;9789250;28;20046;-70
2020/12/18 19:04:58;;;;;;;16.65;14.45;;;;;;;6.66;80.82;100775.50;9825358;28;20051;-68
2020/12/18 19:10:01;;;;;;;14.38;12.90;;;;;;;6.69;80.45;100772.69;9834624;28;20059;-68
2020/12/18 19:15:06;;;;;;;15.50;13.90;;;;;;;6.64;80.22;100777.41;9755516;28;20066;-68
2020/12/18 19:20:08;;;;;;;16.40;14.63;;;;;;;6.51;80.82;100779.03;9954665;28;20059;-67
2020/12/18 19:25:09;;;;;;;14.25;12.75;;;;;;;6.58;80.68;100772.47;9777076;28;20059;-69
2020/12/18 19:30:10;;;;;;;14.13;12.63;;;;;;;6.43;79.82;100770.66;9768366;28;24627;-67
2020/12/18 19:35:12;;;;;;;15.15;13.43;;;;;;;6.17;79.73;100751.75;9743438;28;20050;-67
2020/12/18 19:40:14;;;;;;;15.55;13.90;;;;;;;6.09;80.40;100773.31;9754329;28;20050;-67
2020/12/18 19:45:15;;;;;;;15.40;13.57;;;;;;;6.20;80.51;100775.41;9751535;28;20110;-68
2020/12/18 19:50:17;;;;;;;14.85;13.35;;;;;;;6.12;80.48;100764.38;9769255;28;20062;-67
2020/12/18 19:55:19;;;;;;;15.50;13.90;;;;;;;6.17;80.81;100772.91;9769113;28;20457;-68
2020/12/18 20:00:20;;;;;;;15.15;13.65;;;;;;;6.14;80.75;100760.72;9736235;28;21044;-68
2020/12/18 20:05:21;;;;;;;16.85;14.95;;;;;;;6.33;80.55;100787.00;9737760;28;20106;-69
2020/12/18 20:10:23;;;;;;;16.10;14.48;;;;;;;6.44;80.05;100789.09;9773649;28;20057;-68
2020/12/18 20:15:29;;;;;;;16.70;13.98;;;;;;;6.42;80.30;100780.38;9766945;28;20461;-68
2020/12/18 20:20:31;;;;;;;16.92;15.15;;;;;;;6.34;80.31;100772.88;9783567;28;23354;-67
2020/12/18 20:25:32;;;;;;;16.60;14.60;;;;;;;6.31;80.17;100765.09;9774140;28;21522;-67
2020/12/18 20:30:33;;;;;;;18.35;16.35;;;;;;;6.55;79.59;100793.78;9802022;28;20054;-65
2020/12/18 20:35:34;;;;;;;17.00;15.18;;;;;;;6.45;80.03;100782.84;9798985;28;20058;-67
2020/12/18 20:40:36;;;;;;;17.90;15.88;;;;;;;6.49;79.98;100783.56;9779680;28;20066;-65
2020/12/18 20:45:37;;;;;;;22.85;19.38;;;;;;;6.57;79.88;100786.59;9770162;28;20509;-68
2020/12/18 20:50:38;;;;;;;24.95;19.88;;;;;;;6.54;79.83;100797.38;9772040;28;20082;-68
2020/12/18 20:55:39;;;;;;;23.88;18.08;;;;;;;6.59;79.72;100790.03;9751529;28;20062;-68
2020/12/18 21:00:41;;;;;;;21.85;18.65;;;;;;;6.63;79.95;100782.78;9773273;28;20057;-67
2020/12/18 21:05:43;;;;;;;22.67;19.38;;;;;;;6.63;80.16;100770.41;9777454;28;22155;-66
2020/12/18 21:10:45;;;;;;;23.58;19.67;;;;;;;6.69;79.29;100756.81;9785777;28;20199;-67
2020/12/18 21:15:46;;;;;;;22.50;19.77;;;;;;;6.68;78.97;100747.19;9775304;28;20108;-67
2020/12/18 21:20:48;;;;;;;22.75;18.67;;;;;;;6.61;79.02;100729.13;9770780;28;20109;-68
2020/12/18 21:25:49;;;;;;;21.63;18.33;;;;;;;6.65;78.89;100731.50;9799184;28;20066;-67
2020/12/18 21:30:54;;;;;;;23.88;19.92;;;;;;;6.58;79.21;100740.72;9776702;28;20054;-69
2020/12/18 21:35:56;;;;;;;22.90;19.23;;;;;;;6.50;79.92;100733.22;9815650;28;20058;-68
2020/12/18 21:40:57;;;;;;;21.88;19.48;;;;;;;6.54;79.56;100724.19;9802216;28;20051;-69
2020/12/18 21:45:59;;;;;;;23.77;19.58;;;;;;;6.42;80.05;100719.53;9768487;28;20460;-67
2020/12/18 21:51:00;;;;;;;20.98;18.33;;;;;;;6.58;79.21;100724.00;9791986;28;20055;-66
2020/12/18 21:56:01;;;;;;;23.73;18.80;;;;;;;6.46;79.36;100731.66;9776586;28;22713;-65
2020/12/18 22:01:04;;;;;;;21.33;18.52;;;;;;;6.54;79.16;100718.00;9781384;28;22266;-67
2020/12/18 22:06:06;;;;;;;23.30;17.60;;;;;;;6.41;78.80;100677.31;9765091;28;20478;-66
2020/12/18 22:11:08;;;;;;;22.45;18.08;;;;;;;6.52;78.68;100726.03;9786514;28;20648;-66
2020/12/18 22:16:09;;;;;;;18.33;16.42;;;;;;;6.51;78.41;100713.75;9783767;28;20058;-65
2020/12/18 22:21:10;;;;;;;19.15;17.15;;;;;;;6.49;78.43;100709.50;9786357;28;20136;-67
2020/12/18 22:26:12;;;;;;;19.33;16.63;;;;;;;6.43;78.48;100693.97;9810718;28;20399;-66
2020/12/18 22:31:22;;;;;;;15.63;13.98;;;;;;;6.46;77.80;100705.22;9790680;28;20066;-66
2020/12/18 22:36:27;;;;;;;18.20;14.00;;;;;;;6.47;77.90;100696.34;9786963;28;20054;-66
2020/12/18 22:41:28;;;;;;;13.45;12.05;;;;;;;6.49;78.01;100691.81;9798826;28;20587;-67
2020/12/18 22:46:30;;;;;;;15.38;13.57;;;;;;;6.33;77.77;100668.03;9761723;28;20086;-67
2020/12/18 22:51:32;;;;;;;13.65;12.35;;;;;;;6.32;77.70;100668.09;9767220;28;25705;-67
2020/12/18 22:56:33;;;;;;;13.77;12.38;;;;;;;6.27;77.81;100657.78;9767532;28;20227;-67
2020/12/18 23:01:35;;;;;;;15.15;13.55;;;;;;;6.55;77.46;100674.75;9778527;28;20070;-66
2020/12/18 23:06:36;;;;;;;13.90;12.48;;;;;;;6.57;76.96;100654.34;9804022;28;20409;-66
2020/12/18 23:11:38;;;;;;;13.73;12.48;;;;;;;6.48;77.06;100647.78;9781165;28;20081;-66